Missanabie, Canada
Current Conditions -  °F | °C
As of 5:00 PM on Friday 28 Nov 2014 (Local Time) from CYXZ Reporting Station
Light Snow Light Snow  
Wind Chill: 18°   Ceiling: 1100
Heat Index: 18°   Visibility: 2mi
Dew Point: 14°   Wind: 0mph
Humidity: 86%   Direction: NA
Pressure: 30"   Gusts: NA
Location:  48.3°N, 84.08°W
Report Text: CYXZ 282200Z 00000KT 2SM -SN OVC011 M08/M10 A3000 RMK ST8 SLP188
Loading
Personal Weather Stations






























Interactive Weather Map New forecast layout! Learn more

10-Day Weather Forecast

Advertisements
Track Severe Weather on mobile